Time;durP1;ratioP1;P1;durP2;ratioP2;P2;SDS_P1;SDS_P2;PMS_P1;PMS_P2;Temp;Humidity;BMP_temperature;BMP_pressure;BME280_temperature;BME280_humidity;BME280_pressure;Samples;Min_cycle;Max_cycle;Signal;HPM_P1;HPM_P2
2021/08/28 07:46:23;;;;;;;16.13;3.80;;;17.70;99.90;;;;;;12122714;27;20157;-44
2021/08/28 07:58:52;;;;;;;20.13;4.25;;;19.20;99.90;;;;;;12106030;28;20047;-44
2021/08/28 08:04:40;;;;;;;16.48;3.90;;;19.50;99.90;;;;;;12105495;28;20424;-45
2021/08/28 08:10:27;;;;;;;19.08;4.75;;;19.90;99.90;;;;;;12106160;28;20515;-44
2021/08/28 08:16:14;;;;;;;15.45;4.68;;;19.80;99.90;;;;;;12106437;28;20055;-45
2021/08/28 08:22:02;;;;;;;21.23;3.97;;;19.90;99.90;;;;;;12104596;28;20419;-44
2021/08/28 08:27:49;;;;;;;16.15;3.63;;;20.00;99.80;;;;;;12106723;28;20044;-44
2021/08/28 08:33:36;;;;;;;14.85;3.95;;;20.10;99.50;;;;;;12105649;28;20063;-44
2021/08/28 08:39:24;;;;;;;12.73;4.20;;;20.30;99.30;;;;;;12100138;28;20423;-45
2021/08/28 08:45:11;;;;;;;15.02;3.75;;;20.00;99.30;;;;;;12106396;28;20088;-46
2021/08/28 08:50:59;;;;;;;20.33;4.45;;;19.90;99.40;;;;;;12128944;28;20044;-44
2021/08/28 08:56:47;;;;;;;15.15;4.03;;;19.90;99.80;;;;;;12099782;28;20044;-45
2021/08/28 09:02:35;;;;;;;18.02;3.95;;;19.90;99.60;;;;;;12096162;28;20051;-45
2021/08/28 09:08:22;;;;;;;16.30;4.13;;;19.90;99.90;;;;;;12095563;28;20043;-46
2021/08/28 09:14:21;;;;;;;11.27;3.08;;;19.90;99.90;;;;;;12094768;28;20051;-45
2021/08/28 09:20:19;;;;;;;12.77;3.45;;;20.50;99.90;;;;;;12095368;28;20055;-45
2021/08/28 09:26:26;;;;;;;25.67;5.57;;;21.00;98.80;;;;;;12094791;28;20040;-45
2021/08/28 09:32:14;;;;;;;11.43;2.85;;;20.70;98.90;;;;;;12093544;28;20417;-49
2021/08/28 09:38:03;;;;;;;13.52;3.10;;;20.50;98.60;;;;;;12095399;28;20044;-50
2021/08/28 09:43:50;;;;;;;21.52;7.22;;;20.50;97.90;;;;;;12093157;28;20055;-45
2021/08/28 09:49:40;;;;;;;16.20;4.55;;;20.70;97.80;;;;;;12115825;28;20637;-47
2021/08/28 09:55:31;;;;;;;16.90;3.53;;;20.90;97.50;;;;;;12116306;28;20036;-46
2021/08/28 10:01:21;;;;;;;9.02;3.25;;;21.30;96.20;;;;;;12117588;28;20052;-46
2021/08/28 10:07:10;;;;;;;10.50;2.70;;;21.20;96.50;;;;;;12116817;28;20051;-47
2021/08/28 10:12:58;;;;;;;12.52;3.13;;;21.60;95.50;;;;;;12115373;28;20431;-47
2021/08/28 10:18:46;;;;;;;12.80;2.97;;;21.80;95.00;;;;;;12115346;28;20051;-48
2021/08/28 10:24:36;;;;;;;11.82;2.97;;;21.80;95.00;;;;;;12114511;28;20052;-48
2021/08/28 10:43:30;;;;;;;9.10;2.72;;;21.50;94.40;;;;;;14783283;22;2013376;-47
2021/08/28 10:49:21;;;;;;;14.07;2.90;;;22.20;93.50;;;;;;14788109;23;20028;-43
2021/08/28 10:55:10;;;;;;;11.38;2.50;;;22.30;92.50;;;;;;14807779;23;20091;-45
2021/08/28 11:00:59;;;;;;;9.90;2.45;;;21.80;93.00;;;;;;14754329;22;20083;-45
2021/08/28 11:07:06;;;;;;;10.85;2.92;;;21.50;93.70;;;;;;14802487;22;20020;-45
2021/08/28 11:13:01;;;;;;;183.32;115.68;;;21.70;93.50;;;;;;14802763;22;20031;-44
2021/08/28 11:18:56;;;;;;;8.63;2.70;;;21.90;93.50;;;;;;14801492;22;20048;-44
2021/08/28 11:24:55;;;;;;;7.93;2.28;;;22.10;92.30;;;;;;14801550;22;20032;-47
2021/08/28 11:30:56;;;;;;;8.40;2.28;;;22.50;91.80;;;;;;14802903;22;20025;-46
2021/08/28 11:36:44;;;;;;;7.13;2.08;;;22.60;91.60;;;;;;14802859;23;20099;-45
2021/08/28 11:42:32;;;;;;;9.43;2.30;;;22.80;91.60;;;;;;14774226;22;20505;-45
2021/08/28 11:48:19;;;;;;;165.52;110.97;;;22.80;90.50;;;;;;14768520;23;20029;-47
2021/08/28 11:54:10;;;;;;;8.50;2.50;;;22.70;90.90;;;;;;14785875;23;20055;-50
2021/08/28 11:59:57;;;;;;;9.65;2.90;;;22.50;91.70;;;;;;14783867;22;20025;-48
2021/08/28 12:05:44;;;;;;;10.75;3.30;;;22.60;92.50;;;;;;14785646;22;20020;-48
2021/08/28 12:11:33;;;;;;;9.95;2.47;;;22.80;91.90;;;;;;14782937;22;20024;-46
2021/08/28 12:17:28;;;;;;;6.32;2.40;;;23.10;91.10;;;;;;14782914;22;20039;-47
2021/08/28 12:23:15;;;;;;;8.18;2.65;;;23.40;89.80;;;;;;14786039;22;20032;-49
2021/08/28 12:29:04;;;;;;;9.48;2.47;;;23.40;87.90;;;;;;14785631;22;20111;-48
2021/08/28 12:34:53;;;;;;;6.50;2.38;;;23.20;88.30;;;;;;14784639;22;20071;-50
2021/08/28 12:40:40;;;;;;;6.95;2.25;;;23.20;88.10;;;;;;14768378;22;128945;-49
2021/08/28 12:46:29;;;;;;;5.80;2.28;;;23.20;87.90;;;;;;14757088;23;20043;-50
2021/08/28 12:52:16;;;;;;;6.75;2.10;;;23.40;86.90;;;;;;14759596;23;20494;-49
2021/08/28 12:58:04;;;;;;;8.55;2.40;;;23.50;86.70;;;;;;14774815;23;20347;-46
2021/08/28 13:03:53;;;;;;;5.10;1.95;;;23.60;86.80;;;;;;14784258;22;20478;-46
2021/08/28 13:09:57;;;;;;;6.70;1.80;;;23.40;83.20;;;;;;14783026;22;20107;-47
2021/08/28 13:15:45;;;;;;;14.63;1.55;;;23.70;80.20;;;;;;14783796;22;20035;-47
2021/08/28 13:21:38;;;;;;;4.55;1.67;;;24.20;80.60;;;;;;14784638;22;20024;-45
2021/08/28 13:27:25;;;;;;;4.13;1.60;;;24.90;77.60;;;;;;14782525;22;20392;-47
2021/08/28 13:33:20;;;;;;;10.65;1.73;;;25.00;75.90;;;;;;14782908;22;20479;-46
2021/08/28 13:39:08;;;;;;;9.73;1.77;;;24.60;77.40;;;;;;14783238;22;20374;-46
2021/08/28 13:44:55;;;;;;;5.40;1.45;;;23.80;81.10;;;;;;14778378;23;20031;-48
2021/08/28 13:50:42;;;;;;;4.85;1.80;;;23.20;84.00;;;;;;14782643;22;20111;-47
2021/08/28 13:56:30;;;;;;;5.55;2.00;;;23.10;83.90;;;;;;14779382;22;20101;-49
2021/08/28 14:02:17;;;;;;;4.70;1.70;;;23.20;86.00;;;;;;14783235;22;20040;-48
2021/08/28 14:08:04;;;;;;;7.75;3.42;;;23.50;83.50;;;;;;14782715;23;20092;-46
2021/08/28 14:13:53;;;;;;;6.38;2.50;;;23.60;81.00;;;;;;14782834;22;20100;-49
2021/08/28 14:19:39;;;;;;;4.25;2.20;;;23.80;82.00;;;;;;14782114;22;20147;-47
2021/08/28 14:25:26;;;;;;;8.57;2.47;;;24.10;80.70;;;;;;14781589;22;20087;-44
2021/08/28 14:31:15;;;;;;;7.53;2.20;;;24.50;80.10;;;;;;14782369;22;20031;-45
2021/08/28 14:37:02;;;;;;;7.85;2.17;;;24.00;81.60;;;;;;14783196;22;20020;-45
2021/08/28 14:42:48;;;;;;;7.45;2.47;;;23.80;81.90;;;;;;14774005;23;20063;-45
2021/08/28 14:48:37;;;;;;;7.80;2.78;;;23.90;82.80;;;;;;14782919;22;20401;-45
2021/08/28 14:54:24;;;;;;;6.50;2.90;;;24.00;82.10;;;;;;14784446;22;20029;-45
2021/08/28 15:00:11;;;;;;;8.77;2.70;;;23.50;82.90;;;;;;14781985;22;20017;-49
2021/08/28 15:05:59;;;;;;;15.25;9.80;;;23.30;83.50;;;;;;14783435;22;20023;-54
2021/08/28 15:11:46;;;;;;;12.63;4.07;;;23.30;83.30;;;;;;14780840;22;20024;-62
2021/08/28 15:17:33;;;;;;;7.10;2.15;;;23.90;81.70;;;;;;14784451;22;20103;-62
2021/08/28 15:23:21;;;;;;;8.48;2.42;;;24.20;81.50;;;;;;14787486;22;20371;-63
2021/08/28 15:29:08;;;;;;;5.20;1.98;;;24.20;82.10;;;;;;14785771;22;20501;-63
2021/08/28 15:34:55;;;;;;;8.00;2.20;;;24.40;81.10;;;;;;14786399;22;20031;-64
2021/08/28 15:40:43;;;;;;;6.32;2.28;;;24.50;80.60;;;;;;14778627;22;20411;-59
2021/08/28 15:46:30;;;;;;;12.00;2.58;;;24.10;82.30;;;;;;14760549;23;20028;-65
2021/08/28 15:52:17;;;;;;;8.20;2.10;;;24.40;82.20;;;;;;14785462;22;20027;-49
2021/08/28 15:58:05;;;;;;;5.72;2.30;;;24.80;80.50;;;;;;14785543;22;20079;-52
2021/08/28 16:03:52;;;;;;;4.28;1.75;;;24.90;79.50;;;;;;14785794;22;20040;-52
2021/08/28 16:09:39;;;;;;;6.43;2.28;;;25.00;79.70;;;;;;14786176;22;20107;-52
2021/08/28 16:15:28;;;;;;;4.47;1.67;;;25.00;79.90;;;;;;14787145;23;20112;-55
2021/08/28 16:21:15;;;;;;;5.72;1.63;;;24.80;81.20;;;;;;14785689;22;20033;-54
2021/08/28 16:27:02;;;;;;;5.75;1.77;;;24.60;80.40;;;;;;14785235;22;20107;-56
2021/08/28 16:32:50;;;;;;;5.68;1.60;;;24.00;83.50;;;;;;14785236;22;20481;-52
2021/08/28 16:38:37;;;;;;;7.00;1.92;;;23.60;85.50;;;;;;14785668;22;20063;-53
2021/08/28 16:44:24;;;;;;;5.70;1.80;;;23.60;85.70;;;;;;14756848;22;20028;-63
2021/08/28 16:50:22;;;;;;;8.32;2.22;;;23.70;86.80;;;;;;14779430;23;20028;-60
2021/08/28 16:56:09;;;;;;;5.05;2.17;;;23.90;86.10;;;;;;14784240;22;20518;-61
2021/08/28 17:01:56;;;;;;;7.25;2.78;;;24.80;85.40;;;;;;14784871;22;20048;-65
2021/08/28 17:07:44;;;;;;;6.70;2.33;;;28.00;75.20;;;;;;14784124;22;20083;-52
2021/08/28 17:13:31;;;;;;;5.53;2.05;;;30.20;69.20;;;;;;14779093;22;20090;-55
2021/08/28 17:19:18;;;;;;;5.53;1.77;;;30.70;63.50;;;;;;14784466;22;20398;-59
2021/08/28 17:25:07;;;;;;;4.38;2.00;;;29.80;64.80;;;;;;14783722;22;20078;-58
2021/08/28 17:30:54;;;;;;;5.35;1.60;;;30.20;63.50;;;;;;14783907;22;20538;-59
2021/08/28 17:36:41;;;;;;;3.15;1.60;;;29.40;64.80;;;;;;14783800;22;20029;-58
2021/08/28 17:42:30;;;;;;;4.85;2.30;;;28.20;67.60;;;;;;14763899;23;20090;-59
2021/08/28 17:54:58;;;;;;;7.40;2.03;;;25.40;76.10;;;;;;14854725;22;20024;-57
2021/08/28 18:00:46;;;;;;;4.35;2.05;;;24.90;78.30;;;;;;14855062;22;20051;-59
2021/08/28 18:06:33;;;;;;;5.65;2.20;;;24.20;80.20;;;;;;14857002;23;20048;-58
2021/08/28 18:12:20;;;;;;;5.93;2.10;;;23.70;82.10;;;;;;14854719;22;20108;-58
2021/08/28 18:18:09;;;;;;;5.00;2.22;;;23.60;82.10;;;;;;14854631;22;20110;-59
2021/08/28 18:23:55;;;;;;;6.60;1.90;;;23.50;82.30;;;;;;14853831;22;20030;-57
2021/08/28 18:29:42;;;;;;;3.40;1.60;;;23.40;82.10;;;;;;14854793;22;20024;-58
2021/08/28 18:35:31;;;;;;;4.63;2.13;;;23.20;81.50;;;;;;14854581;22;20511;-58
2021/08/28 18:41:18;;;;;;;6.40;1.98;;;23.00;82.10;;;;;;14840958;22;20020;-57
2021/08/28 18:47:05;;;;;;;4.50;1.90;;;22.80;83.00;;;;;;14827570;23;20031;-56
2021/08/28 18:52:53;;;;;;;8.52;2.72;;;22.60;83.80;;;;;;14831049;23;20024;-56
2021/08/28 18:58:40;;;;;;;11.10;2.45;;;22.40;84.40;;;;;;14827395;23;20690;-55
2021/08/28 19:04:27;;;;;;;8.13;2.58;;;22.50;85.50;;;;;;14831156;23;20024;-53
2021/08/28 19:10:15;;;;;;;5.88;2.80;;;22.40;85.30;;;;;;14836013;23;20020;-54
2021/08/28 19:16:02;;;;;;;12.95;2.78;;;22.30;85.70;;;;;;14832220;23;20026;-55
2021/08/28 19:21:49;;;;;;;7.68;2.47;;;22.40;85.30;;;;;;14832767;23;20020;-54
2021/08/28 19:27:38;;;;;;;9.43;2.50;;;22.20;83.70;;;;;;14834388;23;20028;-51
2021/08/28 19:33:25;;;;;;;8.43;2.30;;;22.20;83.50;;;;;;14834916;23;20024;-55
2021/08/28 19:39:12;;;;;;;4.68;2.40;;;22.00;83.30;;;;;;14833439;23;20031;-54
2021/08/28 19:45:00;;;;;;;6.10;2.42;;;21.90;82.70;;;;;;14831355;23;20032;-51
2021/08/28 19:50:47;;;;;;;6.82;2.40;;;22.10;82.60;;;;;;14832872;23;20106;-54
2021/08/28 19:56:34;;;;;;;9.20;3.00;;;22.10;82.30;;;;;;14834667;23;20111;-56
2021/08/28 20:02:23;;;;;;;8.77;2.85;;;22.00;82.70;;;;;;14830288;23;20133;-53
2021/08/28 20:08:10;;;;;;;8.20;2.72;;;22.10;83.10;;;;;;14832064;23;20135;-55
2021/08/28 20:13:57;;;;;;;7.75;3.35;;;22.20;83.40;;;;;;14834580;23;20063;-51
2021/08/28 20:19:45;;;;;;;8.23;2.67;;;22.10;84.20;;;;;;14831597;23;20032;-54
2021/08/28 20:25:32;;;;;;;8.27;2.67;;;22.00;84.90;;;;;;14833797;23;20024;-56
2021/08/28 20:31:19;;;;;;;7.43;2.58;;;22.20;85.10;;;;;;14832407;23;20034;-56
2021/08/28 20:37:08;;;;;;;11.82;3.60;;;22.00;85.70;;;;;;14832992;23;20459;-54
2021/08/28 20:42:55;;;;;;;7.55;3.28;;;21.90;86.60;;;;;;14831322;23;20020;-55
2021/08/28 20:48:42;;;;;;;10.20;2.92;;;21.80;87.40;;;;;;14827333;23;20020;-53
2021/08/28 20:54:30;;;;;;;12.20;3.80;;;21.80;87.80;;;;;;14835170;23;20030;-54
2021/08/28 21:00:17;;;;;;;11.43;3.65;;;21.80;88.00;;;;;;14831488;23;20051;-55
2021/08/28 21:06:04;;;;;;;8.48;3.55;;;21.80;88.00;;;;;;14830403;23;20482;-56
2021/08/28 21:11:52;;;;;;;10.75;3.72;;;21.60;88.50;;;;;;14831061;23;20032;-54
2021/08/28 21:17:40;;;;;;;9.75;3.90;;;21.60;89.10;;;;;;14831914;23;20028;-54
2021/08/28 21:23:26;;;;;;;22.75;4.13;;;21.60;89.20;;;;;;14833324;23;20050;-54
2021/08/28 21:29:15;;;;;;;34.30;18.63;;;21.60;90.00;;;;;;14829993;23;20020;-55
2021/08/28 21:35:04;;;;;;;11.10;3.58;;;21.50;90.20;;;;;;14831196;23;20024;-54
2021/08/28 21:40:51;;;;;;;8.95;3.65;;;21.30;90.80;;;;;;14829918;23;20470;-54
2021/08/28 21:46:39;;;;;;;12.80;4.20;;;21.30;90.90;;;;;;14831970;23;20099;-55
2021/08/28 21:52:26;;;;;;;12.90;4.18;;;21.10;91.40;;;;;;14830716;23;20034;-55
2021/08/28 21:58:13;;;;;;;14.05;4.82;;;21.10;91.70;;;;;;14829790;23;20022;-52
2021/08/28 22:04:01;;;;;;;13.30;4.57;;;20.80;92.20;;;;;;14808919;23;20548;-56
